Helena, AR (72342)

10:37 PM CDT on August 27, 2015 (GMT -0500)
Tunica | | Change Station
CLOSE
Current Station
Airport
Location: Tunica,
Elevation: 194 ft
Nearby Weather Stations

Elev 194 ft 34.68 °N, 90.35 °W | Updated 2 minutes ago

Clear
Clear
64 °F
Feels Like 64 °F
N
0
Wind Variable Wind from North

Today
High -- | Low -- °F
--% Chance of Precip.
Yesterday
High -- | Low -- °F
Precip. -- in
6:31 AM 7:35 PM
Waxing Gibbous, 96% visible
Pressure 30.06 in
Visibility 10.0 miles
Clouds Clear
Dew Point 61 °F
Humidity 88%
Rainfall 0.00 in
Snow Depth Not available.
UV 0 out of 12
Pollen 8.70 out of 12
Air Quality Not available.
Flu Activity Not available.
METAR KUTA 280335Z AUTO 00000KT 10SM CLR 18/16 A3006 RMK AO2 TSNO
Pressure 30.06 in
Visibility 10.0 miles
Clouds Clear
Dew Point 61 °F
Humidity 88%
Rainfall 0.00 in
Snow Depth Not available.
UV 0 out of 12
Pollen 8.70 out of 12
Air Quality Not available.
Flu Activity Not available.
METAR KUTA 280335Z AUTO 00000KT 10SM CLR 18/16 A3006 RMK AO2 TSNO

10-Day Weather Forecast

×

Almanac

Astronomy

Aug. 27, 2015 Rise Set
Actual Time
Civil Twilight
Nautical Twilight
Astronomical Twilight
Moon
Length of Visible Light
Length of Day
Tomorrow will be .
, % of the Moon is Illuminated

Today's Extremes

State Highs State Lows

Community

WunderPhotos

Upload Photos

1,850,317 photos uploaded!

WunderBlogs® & News

Nearby

Air Quality

  Air Quality AQ Index Pollutant
Not available.

Snow Depth

Station Depth Elevation

Earthquake Activity

City Distance Mag. Time & Date
Minimum magnitude displayed is 2.5.

Coastal Water Temperatures

Place Temperature

Stations

Nearby Weather Stations

Station Location Temp. Windchill Dew Point Humidity Wind Precip. Elev Updated Type